6R3

Cleveland Municipal Airport

Cleveland, Texas, USA
METAR K6R3 190835Z AUTO 00000KT 10SM -DZ CLR 17/12 A3018 RMK AO2 T01700122
Observed Flight Rules
Oct-19 @ 08:35 UTC (32 minutes ago) Visual Flight Rules
Visibility Clouds Conditions
10 miles
  • Clear skies
  • Light Drizzle
Temperatures Readings
Current 17°C / 63°F
Dewpoint 12°C / 54°F
Humidity 73%
Altimeter 30.18" Hg
Pressure 1022 hPa
Elevation 46
METAR K6R3 190835Z AUTO 00000KT 10SM -DZ CLR 17/12 A3018 RMK AO2 T01700122
Observed Flight Rules
Oct-19 @ 08:35 UTC
(32 minutes ago)
VFR
Clouds
  • Clear skies
Conditions
  • Light Drizzle
Temperature Dewpoint
17°C / 63°F 12°C / 54°F
Humidity Altimeter Pressure
73% 30.18" Hg 1022 hPa